Time;durP1;ratioP1;P1;durP2;ratioP2;P2;SDS_P1;SDS_P2;PMS_P1;PMS_P2;Temp;Humidity;BMP_temperature;BMP_pressure;BME280_temperature;BME280_humidity;BME280_pressure;Samples;Min_cycle;Max_cycle;Signal;HPM_P1;HPM_P2
2021/11/13 00:01:10;;;;;;;135.07;69.28;;;179.50;1996.80;;;;;;4900500;29;20107;-57
2021/11/13 00:03:36;;;;;;;125.15;66.97;;;179.50;2022.40;;;;;;4899906;29;20063;-57
2021/11/13 00:06:02;;;;;;;125.38;63.63;;;179.50;1996.80;;;;;;4899385;29;20044;-59
2021/11/13 00:08:28;;;;;;;127.15;65.43;;;179.60;1945.60;;;;;;4899548;29;20021;-57
2021/11/13 00:10:54;;;;;;;114.75;61.88;;;179.50;1996.80;;;;;;4882138;29;20037;-59
2021/11/13 00:13:23;;;;;;;114.53;60.15;;;179.60;1945.60;;;;;;4900294;29;20028;-59
2021/11/13 00:15:49;;;;;;;119.45;59.25;;;179.70;1894.40;;;;;;4899629;29;20048;-59
2021/11/13 00:18:15;;;;;;;117.78;62.22;;;179.50;1996.80;;;;;;4899296;29;20024;-59
2021/11/13 00:20:41;;;;;;;108.03;56.80;;;179.50;1971.20;;;;;;4898898;29;20061;-58
2021/11/13 00:23:08;;;;;;;104.47;53.95;;;179.60;1920.00;;;;;;4899288;29;20083;-58
2021/11/13 00:25:34;;;;;;;93.45;51.10;;;179.50;1945.60;;;;;;4899392;29;20420;-59
2021/11/13 00:28:00;;;;;;;105.50;52.13;;;179.50;1971.20;;;;;;4899049;29;20055;-59
2021/11/13 00:30:26;;;;;;;103.40;53.60;;;179.60;1945.60;;;;;;4898418;29;20480;-57
2021/11/13 00:32:52;;;;;;;103.63;55.33;;;179.60;1945.60;;;;;;4883413;29;20101;-56
2021/11/13 00:35:19;;;;;;;100.95;54.00;;;179.50;1996.80;;;;;;4898296;29;20542;-57
2021/11/13 00:37:45;;;;;;;108.57;55.95;;;179.50;1945.60;;;;;;4899365;29;20088;-57
2021/11/13 00:40:13;;;;;;;111.13;54.83;;;179.50;1971.20;;;;;;4899080;29;20566;-57
2021/11/13 00:42:39;;;;;;;107.72;53.58;;;179.50;1996.80;;;;;;4899113;29;20100;-57
2021/11/13 00:45:05;;;;;;;105.55;55.08;;;179.70;1945.60;;;;;;4899003;29;20428;-59
2021/11/13 00:47:31;;;;;;;112.63;58.00;;;179.70;1945.60;;;;;;4897448;29;20025;-59
2021/11/13 00:49:57;;;;;;;106.05;55.35;;;179.50;1996.80;;;;;;4898694;29;20112;-57
2021/11/13 00:52:23;;;;;;;104.03;52.58;;;179.60;1971.20;;;;;;4898639;29;20036;-57
2021/11/13 00:54:49;;;;;;;108.75;54.55;;;179.70;1920.00;;;;;;4897421;29;20028;-59
2021/11/13 00:57:15;;;;;;;104.95;54.50;;;179.60;1996.80;;;;;;4898039;29;20387;-57
2021/11/13 00:59:40;;;;;;;95.78;52.60;;;179.70;1971.20;;;;;;4898965;29;20044;-58
2021/11/13 01:02:07;;;;;;;102.88;54.03;;;179.70;1920.00;;;;;;4898615;29;20028;-59
2021/11/13 01:04:34;;;;;;;97.25;53.97;;;179.60;1971.20;;;;;;4897566;29;20024;-59
2021/11/13 01:07:00;;;;;;;98.18;53.08;;;179.70;1971.20;;;;;;4897408;29;20501;-56
2021/11/13 01:09:26;;;;;;;112.38;56.75;;;179.80;1920.00;;;;;;4897700;29;20028;-56
2021/11/13 01:11:52;;;;;;;101.45;55.42;;;179.70;1996.80;;;;;;4883407;29;20095;-59
2021/11/13 01:14:17;;;;;;;98.93;54.92;;;179.80;1971.20;;;;;;4898657;29;20024;-59
2021/11/13 01:16:43;;;;;;;103.50;55.17;;;179.90;1894.40;;;;;;4899023;29;20104;-59
2021/11/13 01:19:11;;;;;;;97.68;53.38;;;179.70;1971.20;;;;;;4899190;29;20032;-59
2021/11/13 01:21:37;;;;;;;94.90;51.33;;;179.80;1971.20;;;;;;4906690;29;20065;-59
2021/11/13 01:24:03;;;;;;;103.18;55.45;;;179.80;1920.00;;;;;;4901204;29;20048;-59
2021/11/13 01:26:29;;;;;;;101.85;52.22;;;179.70;1971.20;;;;;;4917693;29;20031;-59
2021/11/13 01:28:55;;;;;;;98.63;50.28;;;179.60;1996.80;;;;;;4918106;29;20048;-59
2021/11/13 01:31:20;;;;;;;96.85;50.35;;;179.70;1945.60;;;;;;4917415;29;20424;-57
2021/11/13 01:33:46;;;;;;;92.38;48.60;;;179.60;1971.20;;;;;;4917887;29;20031;-57
2021/11/13 01:36:13;;;;;;;86.97;46.92;;;179.50;2022.40;;;;;;4917914;29;20024;-57
2021/11/13 01:38:40;;;;;;;88.28;46.58;;;179.60;1971.20;;;;;;4917599;29;20133;-57
2021/11/13 01:41:07;;;;;;;83.50;46.35;;;179.50;1945.60;;;;;;4900287;29;20405;-57
2021/11/13 01:43:36;;;;;;;78.75;44.63;;;179.50;2022.40;;;;;;4900350;29;20047;-57
2021/11/13 01:46:04;;;;;;;83.95;45.20;;;179.60;1996.80;;;;;;4917760;29;20051;-57
2021/11/13 01:48:31;;;;;;;89.78;48.47;;;179.50;1945.60;;;;;;4917571;29;20111;-57
2021/11/13 01:50:57;;;;;;;83.68;46.28;;;179.50;1996.80;;;;;;4917548;29;20032;-57
2021/11/13 01:53:24;;;;;;;79.90;44.42;;;179.60;1996.80;;;;;;4917697;29;20079;-57
2021/11/13 01:55:54;;;;;;;91.80;48.83;;;179.70;1920.00;;;;;;4900475;29;20036;-57
2021/11/13 01:58:20;;;;;;;90.43;47.80;;;179.50;1971.20;;;;;;4917324;29;20024;-57
2021/11/13 02:00:50;;;;;;;95.18;50.25;;;179.50;2022.40;;;;;;4917391;29;20032;-57
2021/11/13 02:03:18;;;;;;;90.97;47.80;;;179.70;1945.60;;;;;;4917601;29;20443;-57
2021/11/13 02:05:44;;;;;;;93.25;49.58;;;179.60;1920.00;;;;;;4917572;29;20493;-59
2021/11/13 02:08:09;;;;;;;85.80;46.53;;;179.50;1996.80;;;;;;4917540;29;20020;-60
2021/11/13 02:10:35;;;;;;;81.63;46.78;;;179.60;1996.80;;;;;;4917368;29;20024;-57
2021/11/13 02:13:01;;;;;;;81.53;44.03;;;179.50;1945.60;;;;;;4899849;29;20131;-57
2021/11/13 02:15:28;;;;;;;81.20;44.83;;;179.50;1971.20;;;;;;4919271;29;20451;-57
2021/11/13 02:17:57;;;;;;;83.50;45.40;;;179.50;1996.80;;;;;;4920878;29;20020;-57
2021/11/13 02:20:33;;;;;;;78.28;44.35;;;179.60;1996.80;;;;;;4921154;29;20032;-60
2021/11/13 02:23:03;;;;;;;77.93;42.45;;;179.60;1920.00;;;;;;4920892;29;20553;-59
2021/11/13 02:25:32;;;;;;;79.63;42.92;;;179.70;1971.20;;;;;;4920981;29;20418;-60
2021/11/13 02:27:58;;;;;;;76.35;41.28;;;179.70;1971.20;;;;;;4920997;29;20028;-59
2021/11/13 02:30:24;;;;;;;73.65;40.70;;;179.70;1920.00;;;;;;4921089;29;20110;-57
2021/11/13 02:32:53;;;;;;;75.63;39.90;;;179.70;1945.60;;;;;;4921019;29;20124;-57
2021/11/13 02:35:19;;;;;;;65.53;38.45;;;179.70;1945.60;;;;;;4921054;29;20482;-57
2021/11/13 02:37:46;;;;;;;62.40;36.58;;;179.70;1945.60;;;;;;4920879;29;20032;-57
2021/11/13 02:40:13;;;;;;;60.45;34.97;;;179.70;1945.60;;;;;;4920489;29;20044;-59
2021/11/13 02:42:40;;;;;;;59.20;33.70;;;179.70;1945.60;;;;;;4920483;29;20023;-60
2021/11/13 02:45:10;;;;;;;56.40;34.05;;;179.70;1945.60;;;;;;4920733;29;20071;-60
2021/11/13 02:47:39;;;;;;;60.97;33.45;;;179.70;1996.80;;;;;;4920711;29;20036;-59
2021/11/13 02:50:06;;;;;;;59.95;34.08;;;179.70;2022.40;;;;;;4920844;29;20036;-57
2021/11/13 02:52:56;;;;;;;52.60;31.92;;;179.70;2022.40;;;;;;4920774;29;20040;-58
2021/11/13 02:55:22;;;;;;;50.85;30.90;;;179.80;1971.20;;;;;;4920664;29;20032;-59
2021/11/13 02:57:49;;;;;;;52.88;33.75;;;179.90;1920.00;;;;;;4920497;29;20028;-60
2021/11/13 03:00:19;;;;;;;55.47;32.90;;;179.80;1996.80;;;;;;4920678;29;20058;-60
2021/11/13 03:02:45;;;;;;;50.88;32.97;;;179.80;1971.20;;;;;;4920540;29;20035;-60
2021/11/13 03:05:35;;;;;;;56.72;32.95;;;179.80;1996.80;;;;;;4920313;29;20478;-59
2021/11/13 03:08:05;;;;;;;50.33;31.88;;;179.80;1996.80;;;;;;4920532;29;20024;-59
2021/11/13 03:10:34;;;;;;;51.70;32.20;;;179.90;1920.00;;;;;;4920362;29;20163;-57
2021/11/13 03:13:01;;;;;;;52.60;33.40;;;179.90;1971.20;;;;;;4920402;29;20102;-58
2021/11/13 03:15:27;;;;;;;55.67;33.05;;;179.90;1996.80;;;;;;4920285;29;20048;-57
2021/11/13 03:17:54;;;;;;;54.08;34.25;;;180.00;1971.20;;;;;;4903280;29;20047;-57
2021/11/13 03:20:26;;;;;;;49.75;31.77;;;180.00;1996.80;;;;;;4920107;29;20193;-57
2021/11/13 03:22:52;;;;;;;53.92;32.35;;;180.10;1920.00;;;;;;4919952;29;20040;-57
2021/11/13 03:25:22;;;;;;;55.35;32.60;;;180.00;1971.20;;;;;;4919780;29;20024;-59
2021/11/13 03:27:50;;;;;;;57.00;32.42;;;179.90;1996.80;;;;;;4919881;29;20039;-59
2021/11/13 03:30:17;;;;;;;54.25;31.60;;;180.00;1920.00;;;;;;4920153;29;20035;-60
2021/11/13 03:32:43;;;;;;;49.72;31.92;;;179.90;1971.20;;;;;;4919821;29;20551;-60
2021/11/13 03:35:13;;;;;;;54.25;30.55;;;180.00;1971.20;;;;;;4920083;29;20024;-57
2021/11/13 03:37:40;;;;;;;57.45;33.05;;;180.00;1920.00;;;;;;4919756;29;20032;-57
2021/11/13 03:40:08;;;;;;;51.33;30.60;;;179.90;1996.80;;;;;;4919810;29;20486;-60
2021/11/13 03:42:33;;;;;;;58.33;32.10;;;179.90;1945.60;;;;;;4919667;29;20118;-59
2021/11/13 03:45:00;;;;;;;57.17;33.22;;;179.90;1996.80;;;;;;4918979;29;20054;-57
2021/11/13 03:47:27;;;;;;;52.20;31.73;;;179.90;2022.40;;;;;;4919172;29;20036;-57
2021/11/13 03:49:53;;;;;;;56.13;33.45;;;180.00;1945.60;;;;;;4919755;29;20525;-57
2021/11/13 03:52:19;;;;;;;62.30;35.15;;;179.80;1996.80;;;;;;4919664;29;20028;-57
2021/11/13 03:54:45;;;;;;;55.65;32.33;;;179.90;1996.80;;;;;;4919644;29;20365;-57
2021/11/13 03:57:11;;;;;;;62.75;35.42;;;179.90;1971.20;;;;;;4919569;29;20032;-58
2021/11/13 03:59:36;;;;;;;60.28;33.25;;;179.80;2022.40;;;;;;4919592;29;20043;-57
2021/11/13 04:02:02;;;;;;;62.00;35.42;;;179.90;1971.20;;;;;;4919301;29;20579;-57
2021/11/13 04:04:28;;;;;;;63.58;34.50;;;179.80;1996.80;;;;;;4919577;29;20498;-57
2021/11/13 04:06:54;;;;;;;58.65;33.10;;;179.90;1996.80;;;;;;4919428;29;20028;-60
2021/11/13 04:09:20;;;;;;;61.97;35.85;;;179.90;1945.60;;;;;;4919485;29;20040;-60
2021/11/13 04:11:46;;;;;;;63.10;35.90;;;179.80;2022.40;;;;;;4901723;29;20038;-60
2021/11/13 04:14:11;;;;;;;64.13;37.30;;;179.90;1996.80;;;;;;4919189;29;20036;-59
2021/11/13 04:16:37;;;;;;;64.13;35.35;;;179.90;1971.20;;;;;;4918920;29;20080;-60
2021/11/13 04:19:09;;;;;;;66.18;36.08;;;179.80;2022.40;;;;;;4918901;29;20076;-60
2021/11/13 04:21:36;;;;;;;56.75;33.00;;;180.00;1971.20;;;;;;4918904;29;20070;-57
2021/11/13 04:24:01;;;;;;;67.50;37.60;;;179.90;1996.80;;;;;;4919071;29;20032;-57
2021/11/13 04:26:27;;;;;;;62.13;36.72;;;180.00;1996.80;;;;;;4918816;29;20084;-60
2021/11/13 04:28:53;;;;;;;64.05;36.63;;;180.00;1945.60;;;;;;4918825;29;20355;-60
2021/11/13 04:31:19;;;;;;;62.10;34.72;;;179.90;2022.40;;;;;;4919245;29;20032;-60
2021/11/13 04:33:45;;;;;;;66.25;36.42;;;180.00;1971.20;;;;;;4919516;29;20078;-60
2021/11/13 04:36:18;;;;;;;59.95;35.35;;;180.00;1971.20;;;;;;4918921;29;20490;-60
2021/11/13 04:38:44;;;;;;;67.32;36.97;;;179.90;2022.40;;;;;;4918303;29;20020;-60
2021/11/13 04:41:10;;;;;;;58.78;35.70;;;180.00;1945.60;;;;;;4918681;29;20398;-60
2021/11/13 04:43:36;;;;;;;63.33;35.30;;;180.00;1971.20;;;;;;4918707;29;20375;-57
2021/11/13 04:46:02;;;;;;;59.90;35.10;;;180.00;1996.80;;;;;;4918731;29;20423;-57
2021/11/13 04:48:28;;;;;;;62.83;36.55;;;180.00;1945.60;;;;;;4918682;29;20072;-57
2021/11/13 04:50:57;;;;;;;64.00;35.65;;;179.90;2022.40;;;;;;4918633;29;20032;-57
2021/11/13 04:53:22;;;;;;;67.30;36.58;;;180.00;1996.80;;;;;;4918600;29;20032;-59
2021/11/13 04:55:48;;;;;;;64.82;36.33;;;180.00;1971.20;;;;;;4918308;29;20474;-60
2021/11/13 04:58:14;;;;;;;61.97;35.65;;;180.00;2022.40;;;;;;4918514;29;20048;-60
2021/11/13 05:00:40;;;;;;;69.85;36.42;;;180.10;1971.20;;;;;;4918110;29;20040;-59
2021/11/13 05:03:06;;;;;;;66.93;36.45;;;180.00;1996.80;;;;;;4918357;29;20039;-60
2021/11/13 05:05:31;;;;;;;65.68;37.10;;;180.10;2022.40;;;;;;4900610;29;20047;-60
2021/11/13 05:07:57;;;;;;;65.50;38.38;;;180.10;1971.20;;;;;;4918137;29;20103;-60
2021/11/13 05:10:23;;;;;;;71.88;39.63;;;180.10;2022.40;;;;;;4918078;29;20028;-60
2021/11/13 05:12:49;;;;;;;72.20;41.20;;;204.80;1971.20;;;;;;4918131;29;20080;-59
2021/11/13 05:15:15;;;;;;;68.65;38.47;;;204.80;1996.80;;;;;;4918157;29;20025;-60
2021/11/13 05:17:41;;;;;;;70.57;37.88;;;204.80;1996.80;;;;;;4917955;29;20471;-60
2021/11/13 05:20:11;;;;;;;73.90;38.72;;;204.90;1945.60;;;;;;4917363;29;20096;-57
2021/11/13 05:22:39;;;;;;;68.47;37.65;;;204.90;1996.80;;;;;;4917370;29;20476;-57
2021/11/13 05:25:07;;;;;;;77.55;37.08;;;205.00;1971.20;;;;;;4918037;29;20526;-60
2021/11/13 05:27:33;;;;;;;72.35;37.83;;;205.00;1945.60;;;;;;4917351;29;20095;-60
2021/11/13 05:29:59;;;;;;;72.40;38.75;;;205.00;1971.20;;;;;;4917822;29;20036;-60
2021/11/13 05:32:25;;;;;;;65.57;37.42;;;205.00;1971.20;;;;;;4918231;29;20375;-59
2021/11/13 05:34:50;;;;;;;72.70;38.95;;;205.00;1945.60;;;;;;4917835;29;20035;-59
2021/11/13 05:37:16;;;;;;;67.25;35.80;;;205.00;1996.80;;;;;;4917873;29;20032;-60
2021/11/13 05:39:42;;;;;;;69.07;37.40;;;205.00;1945.60;;;;;;4917588;29;20490;-60
2021/11/13 05:42:08;;;;;;;69.40;37.20;;;205.00;1945.60;;;;;;4917571;29;20035;-59
2021/11/13 05:44:34;;;;;;;72.43;38.35;;;205.10;1971.20;;;;;;4917681;29;20427;-58
2021/11/13 05:47:00;;;;;;;65.50;36.95;;;205.10;1920.00;;;;;;4917696;29;20050;-60
2021/11/13 05:49:26;;;;;;;70.93;39.83;;;205.20;1945.60;;;;;;4916757;29;20491;-57
2021/11/13 05:51:51;;;;;;;70.15;38.75;;;205.20;1971.20;;;;;;4917905;29;20043;-57
2021/11/13 05:54:18;;;;;;;75.28;40.65;;;205.20;1920.00;;;;;;4917508;29;20036;-57
2021/11/13 05:56:44;;;;;;;73.43;39.65;;;205.20;1971.20;;;;;;4899990;29;20048;-57
2021/11/13 05:59:10;;;;;;;77.32;42.35;;;205.30;1945.60;;;;;;4917506;29;20036;-59
2021/11/13 06:01:36;;;;;;;85.35;42.85;;;205.30;1945.60;;;;;;4917248;29;20128;-59
2021/11/13 06:04:02;;;;;;;83.78;42.13;;;205.30;1945.60;;;;;;4917929;29;20047;-60
2021/11/13 06:06:27;;;;;;;79.97;42.40;;;205.40;1894.40;;;;;;4917198;29;20036;-59
2021/11/13 06:08:53;;;;;;;81.00;42.70;;;205.40;1920.00;;;;;;4917733;29;20032;-56
2021/11/13 06:11:19;;;;;;;86.20;44.38;;;205.40;1920.00;;;;;;4917070;29;20119;-57
2021/11/13 06:13:45;;;;;;;86.72;46.10;;;205.50;1920.00;;;;;;4918059;29;20024;-57
2021/11/13 06:16:10;;;;;;;83.97;43.70;;;205.50;1945.60;;;;;;4900029;29;20040;-59
2021/11/13 06:18:37;;;;;;;80.65;40.80;;;205.50;1920.00;;;;;;4917331;29;20490;-59
2021/11/13 06:21:05;;;;;;;77.68;41.60;;;205.50;1894.40;;;;;;4916926;29;20118;-59
2021/11/13 06:23:33;;;;;;;92.70;42.45;;;205.60;1920.00;;;;;;4917074;29;20025;-60
2021/11/13 06:25:59;;;;;;;78.30;40.10;;;205.60;1894.40;;;;;;4917236;29;20111;-60
2021/11/13 06:28:24;;;;;;;80.20;40.75;;;205.60;1920.00;;;;;;4917169;29;20029;-58
2021/11/13 06:30:50;;;;;;;78.47;38.83;;;205.60;1920.00;;;;;;4916790;29;20040;-57
2021/11/13 06:33:16;;;;;;;75.97;42.13;;;205.60;1868.80;;;;;;4917189;29;20036;-57
2021/11/13 06:35:43;;;;;;;113.22;55.40;;;205.60;1920.00;;;;;;4917117;29;20028;-58
2021/11/13 06:38:08;;;;;;;85.40;44.72;;;205.70;1920.00;;;;;;4900092;29;20374;-59
2021/11/13 06:40:34;;;;;;;95.47;48.20;;;205.70;1868.80;;;;;;4917264;29;20044;-60
2021/11/13 06:43:00;;;;;;;96.43;50.28;;;205.70;1920.00;;;;;;4916831;29;20107;-60
2021/11/13 06:45:26;;;;;;;90.75;46.25;;;205.70;1894.40;;;;;;4916741;29;20115;-57
2021/11/13 06:47:52;;;;;;;89.65;45.88;;;205.70;1894.40;;;;;;4899580;29;20048;-57
2021/11/13 06:50:18;;;;;;;86.07;44.65;;;205.70;1920.00;;;;;;4916930;29;20087;-57
2021/11/13 06:52:44;;;;;;;87.10;44.53;;;205.70;1945.60;;;;;;4917025;29;20028;-58
2021/11/13 06:55:10;;;;;;;84.68;43.08;;;230.40;1945.60;;;;;;4916936;29;20032;-60
2021/11/13 06:57:37;;;;;;;84.55;42.78;;;230.40;1945.60;;;;;;4916528;29;20086;-58
2021/11/13 07:00:06;;;;;;;85.03;44.50;;;230.50;1920.00;;;;;;4916844;29;20394;-61
2021/11/13 07:02:32;;;;;;;80.28;38.03;;;230.50;1920.00;;;;;;4920287;29;20056;-67
2021/11/13 07:04:59;;;;;;;109.20;44.92;;;230.60;2048.00;;;;;;4902924;29;20068;-62
2021/11/13 07:07:25;;;;;;;84.47;41.83;;;230.90;2073.60;;;;;;4920130;29;20028;-61
2021/11/13 07:09:51;;;;;;;89.03;42.38;;;231.00;1971.20;;;;;;4920406;29;20363;-60
2021/11/13 07:12:17;;;;;;;81.38;38.75;;;231.00;1920.00;;;;;;4920005;29;20028;-60
2021/11/13 07:14:43;;;;;;;83.55;42.25;;;231.00;1945.60;;;;;;4920139;29;20047;-60
2021/11/13 07:17:08;;;;;;;85.00;43.03;;;231.00;1920.00;;;;;;4920058;29;20032;-57
2021/11/13 07:19:34;;;;;;;83.57;43.28;;;231.00;1894.40;;;;;;4919840;29;20108;-57
2021/11/13 07:22:00;;;;;;;82.22;42.17;;;231.00;1894.40;;;;;;4919813;29;20046;-60
2021/11/13 07:24:26;;;;;;;76.85;41.88;;;231.00;1868.80;;;;;;4919694;29;20498;-57
2021/11/13 07:26:52;;;;;;;75.20;40.78;;;231.00;1868.80;;;;;;4902327;29;20045;-57
2021/11/13 07:29:20;;;;;;;78.32;41.13;;;231.00;1868.80;;;;;;4919721;29;20084;-59
2021/11/13 07:31:46;;;;;;;76.40;39.75;;;231.00;1868.80;;;;;;4905031;29;20037;-57
2021/11/13 07:34:12;;;;;;;83.88;42.35;;;231.00;1868.80;;;;;;4899072;29;20031;-57
2021/11/13 07:36:37;;;;;;;79.68;41.65;;;231.10;1868.80;;;;;;4899078;29;20020;-56
2021/11/13 07:39:03;;;;;;;79.65;44.72;;;231.00;1868.80;;;;;;4899089;29;20446;-57
2021/11/13 07:41:29;;;;;;;80.90;44.50;;;231.00;1868.80;;;;;;4899929;29;20084;-57
2021/11/13 07:43:55;;;;;;;86.38;43.92;;;231.10;1868.80;;;;;;4900921;29;20031;-58
2021/11/13 07:46:21;;;;;;;84.70;42.45;;;231.00;1868.80;;;;;;4883918;29;20503;-59
2021/11/13 07:48:47;;;;;;;77.85;41.35;;;231.00;1868.80;;;;;;4899480;29;20036;-58
2021/11/13 07:51:12;;;;;;;78.07;40.60;;;231.00;1868.80;;;;;;4900224;29;20045;-60
2021/11/13 07:53:39;;;;;;;82.72;42.10;;;231.10;1868.80;;;;;;4899578;29;20025;-57
2021/11/13 07:56:05;;;;;;;85.53;43.67;;;231.10;1868.80;;;;;;4900585;29;20082;-57
2021/11/13 07:58:30;;;;;;;85.45;44.05;;;231.10;1868.80;;;;;;4883017;29;20499;-57
2021/11/13 08:00:56;;;;;;;87.13;45.60;;;231.00;1868.80;;;;;;4900317;29;20044;-57
2021/11/13 08:03:22;;;;;;;88.97;44.42;;;231.00;1868.80;;;;;;4900531;29;20032;-57
2021/11/13 08:05:48;;;;;;;81.05;42.55;;;230.90;1868.80;;;;;;4883432;29;20059;-57
2021/11/13 08:08:14;;;;;;;84.07;44.00;;;230.90;1868.80;;;;;;4899893;29;20032;-57
2021/11/13 08:10:42;;;;;;;81.80;43.28;;;230.90;1868.80;;;;;;4900351;29;20048;-57
2021/11/13 08:13:10;;;;;;;84.45;44.50;;;230.80;1894.40;;;;;;4899545;29;20111;-58
2021/11/13 08:15:36;;;;;;;100.53;50.33;;;230.80;1894.40;;;;;;4883276;29;20424;-57
2021/11/13 08:18:02;;;;;;;86.53;47.50;;;230.80;1894.40;;;;;;4900201;29;20028;-57
2021/11/13 08:20:30;;;;;;;90.45;45.75;;;230.80;1894.40;;;;;;4899836;29;20116;-57
2021/11/13 08:22:57;;;;;;;82.38;42.70;;;230.70;1920.00;;;;;;4899717;29;20526;-58
2021/11/13 08:25:23;;;;;;;79.63;40.17;;;230.70;1894.40;;;;;;4899815;29;20077;-57
2021/11/13 08:27:50;;;;;;;88.50;44.28;;;230.80;1894.40;;;;;;4900071;29;20039;-58
2021/11/13 08:30:16;;;;;;;88.18;44.17;;;230.70;1920.00;;;;;;4899891;29;20035;-57
2021/11/13 08:32:43;;;;;;;84.90;43.17;;;230.70;1920.00;;;;;;4899993;29;20028;-57
2021/11/13 08:35:10;;;;;;;81.05;41.70;;;230.70;1920.00;;;;;;4899900;29;20053;-57
2021/11/13 08:37:36;;;;;;;86.25;42.40;;;230.80;1920.00;;;;;;4899917;29;20032;-57
2021/11/13 08:40:04;;;;;;;85.85;42.50;;;230.80;1920.00;;;;;;4899674;29;20040;-57
2021/11/13 08:42:29;;;;;;;83.20;43.17;;;230.80;1920.00;;;;;;4899584;29;20029;-57
2021/11/13 08:44:55;;;;;;;85.70;42.05;;;230.80;1920.00;;;;;;4899770;29;20033;-56
2021/11/13 08:47:21;;;;;;;84.70;40.28;;;230.70;1920.00;;;;;;4900186;29;20083;-57
2021/11/13 08:49:47;;;;;;;82.68;41.25;;;230.80;1920.00;;;;;;4882668;29;20037;-57
2021/11/13 08:52:16;;;;;;;84.93;42.20;;;230.70;1920.00;;;;;;4899594;29;20543;-57
2021/11/13 08:54:43;;;;;;;78.30;41.30;;;230.80;1920.00;;;;;;4899445;29;20033;-57
2021/11/13 08:57:09;;;;;;;79.07;40.20;;;230.80;1920.00;;;;;;4899532;29;20036;-57
2021/11/13 08:59:35;;;;;;;71.05;39.45;;;230.80;1920.00;;;;;;4899395;29;20160;-57
2021/11/13 09:02:09;;;;;;;83.53;40.53;;;230.80;1920.00;;;;;;4899377;29;20040;-57
2021/11/13 09:04:36;;;;;;;78.35;39.47;;;230.80;1920.00;;;;;;4899526;29;20490;-57
2021/11/13 09:07:05;;;;;;;86.97;43.70;;;230.90;1920.00;;;;;;4899236;29;20029;-57
2021/11/13 09:09:34;;;;;;;78.80;42.05;;;230.90;1920.00;;;;;;4899241;29;20064;-57
2021/11/13 09:12:03;;;;;;;79.40;40.38;;;230.90;1920.00;;;;;;4899165;29;20040;-57
2021/11/13 09:14:32;;;;;;;86.28;41.13;;;230.90;1920.00;;;;;;4882181;29;20098;-57
2021/11/13 09:16:59;;;;;;;83.20;41.15;;;231.00;1920.00;;;;;;4882047;29;20041;-57
2021/11/13 09:19:24;;;;;;;87.88;42.45;;;231.00;1894.40;;;;;;4898934;29;20084;-57
2021/11/13 09:21:52;;;;;;;88.75;43.58;;;231.00;1920.00;;;;;;4898953;29;20048;-57
2021/11/13 09:24:18;;;;;;;82.18;43.70;;;231.00;1920.00;;;;;;4898840;29;20021;-57
2021/11/13 09:26:44;;;;;;;93.53;45.88;;;231.00;1920.00;;;;;;4898891;29;20020;-57
2021/11/13 09:29:10;;;;;;;82.20;43.08;;;231.00;1920.00;;;;;;4882169;29;20051;-57
2021/11/13 09:31:41;;;;;;;82.63;41.92;;;231.00;1920.00;;;;;;4898542;29;20060;-57
2021/11/13 09:34:09;;;;;;;95.50;45.08;;;231.00;1920.00;;;;;;4898755;29;20032;-57
2021/11/13 09:36:35;;;;;;;88.07;43.90;;;231.00;1920.00;;;;;;4898807;29;20025;-57
2021/11/13 09:39:00;;;;;;;91.82;46.95;;;231.00;1920.00;;;;;;4898779;29;20476;-57
2021/11/13 09:41:26;;;;;;;85.43;43.60;;;231.10;1920.00;;;;;;4898621;29;20092;-57
2021/11/13 09:43:52;;;;;;;86.28;44.58;;;231.10;1920.00;;;;;;4898989;29;20025;-57
2021/11/13 09:46:18;;;;;;;85.63;44.53;;;231.20;1920.00;;;;;;4898772;29;20032;-57
2021/11/13 09:48:45;;;;;;;89.88;46.30;;;231.30;1920.00;;;;;;4898841;29;20025;-57
2021/11/13 09:51:11;;;;;;;90.22;44.17;;;231.30;1920.00;;;;;;4898332;29;20033;-57
2021/11/13 09:53:38;;;;;;;85.07;44.28;;;231.30;1894.40;;;;;;4898532;29;20028;-57
2021/11/13 09:56:05;;;;;;;97.60;48.28;;;256.00;1894.40;;;;;;4898700;29;20027;-57
2021/11/13 09:58:31;;;;;;;94.30;46.33;;;256.00;1894.40;;;;;;4898768;29;20099;-57
2021/11/13 10:00:57;;;;;;;88.05;43.17;;;256.10;1894.40;;;;;;4898536;29;20124;-57
2021/11/13 10:03:23;;;;;;;84.13;41.45;;;256.10;1894.40;;;;;;4898592;29;20497;-58
2021/11/13 10:05:55;;;;;;;81.72;39.83;;;256.20;1894.40;;;;;;4898671;29;20120;-60
2021/11/13 10:08:22;;;;;;;79.47;41.95;;;256.30;1920.00;;;;;;4881838;29;20025;-61
2021/11/13 10:10:53;;;;;;;86.88;43.40;;;256.40;1894.40;;;;;;4898509;29;20068;-59
2021/11/13 10:13:24;;;;;;;83.50;43.15;;;256.60;1894.40;;;;;;4898612;29;20461;-60
2021/11/13 10:15:59;;;;;;;84.22;42.92;;;256.60;1868.80;;;;;;4898442;29;20028;-58
2021/11/13 10:18:28;;;;;;;83.45;42.45;;;256.60;1868.80;;;;;;4898681;29;20017;-59
2021/11/13 10:20:57;;;;;;;81.50;40.63;;;256.80;1868.80;;;;;;4898125;29;20032;-58
2021/11/13 10:23:25;;;;;;;74.28;38.67;;;256.90;1843.20;;;;;;4898156;29;20033;-57
2021/11/13 10:26:07;;;;;;;68.30;38.53;;;256.90;1843.20;;;;;;4898286;29;20031;-60
2021/11/13 10:28:52;;;;;;;75.82;42.08;;;281.60;1868.80;;;;;;4896978;29;20031;-58
2021/11/13 10:31:28;;;;;;;70.82;38.63;;;281.60;1868.80;;;;;;4898115;29;20483;-58
2021/11/13 10:33:59;;;;;;;75.93;40.00;;;281.70;1868.80;;;;;;4881447;29;20037;-58
2021/11/13 10:36:34;;;;;;;74.80;39.40;;;281.80;1817.60;;;;;;4899791;29;20016;-58
2021/11/13 10:39:22;;;;;;;79.28;42.80;;;281.80;1843.20;;;;;;4901668;29;20032;-57
2021/11/13 10:41:55;;;;;;;76.35;39.80;;;281.90;1817.60;;;;;;4901630;29;20032;-57
2021/11/13 10:44:28;;;;;;;77.13;39.63;;;282.00;1817.60;;;;;;4901390;29;20036;-58
2021/11/13 10:46:54;;;;;;;78.38;41.33;;;282.10;1792.00;;;;;;4902092;29;20076;-58
2021/11/13 10:49:21;;;;;;;74.05;40.25;;;282.10;1792.00;;;;;;4901725;29;20108;-58
2021/11/13 10:51:48;;;;;;;69.15;38.17;;;282.10;1792.00;;;;;;4884869;29;20029;-59
2021/11/13 10:54:16;;;;;;;75.35;42.53;;;282.10;1792.00;;;;;;4901724;29;20028;-57
2021/11/13 10:56:47;;;;;;;77.05;40.63;;;282.20;1792.00;;;;;;4899160;29;20594;-58
2021/11/13 10:59:14;;;;;;;74.90;39.03;;;282.30;1792.00;;;;;;4881089;29;20498;-58
2021/11/13 11:01:51;;;;;;;63.97;37.40;;;282.30;1792.00;;;;;;4900694;29;20033;-58
2021/11/13 11:04:26;;;;;;;73.18;38.38;;;282.30;1792.00;;;;;;4899732;29;20032;-60
2021/11/13 11:07:01;;;;;;;71.47;39.13;;;282.30;1792.00;;;;;;4900370;29;20041;-57
2021/11/13 11:09:29;;;;;;;65.05;37.55;;;282.40;1792.00;;;;;;4900848;29;20036;-59
2021/11/13 11:12:09;;;;;;;68.43;36.92;;;282.40;1792.00;;;;;;4883945;29;20502;-62
2021/11/13 11:14:37;;;;;;;70.03;37.45;;;282.50;1766.40;;;;;;4899194;29;20032;-60
2021/11/13 11:17:19;;;;;;;72.93;37.72;;;307.20;1792.00;;;;;;4899532;29;20115;-61
2021/11/13 11:19:48;;;;;;;69.35;38.17;;;307.20;1792.00;;;;;;4897204;29;20041;-63
2021/11/13 11:22:16;;;;;;;71.60;38.78;;;307.20;1792.00;;;;;;4882274;29;20131;-61
2021/11/13 11:24:46;;;;;;;76.13;39.10;;;307.20;1792.00;;;;;;4899505;29;20059;-64
2021/11/13 11:27:22;;;;;;;69.80;38.00;;;307.20;1792.00;;;;;;4899379;29;20025;-61
2021/11/13 11:29:50;;;;;;;79.35;37.85;;;307.30;1792.00;;;;;;4897489;29;20029;-61
2021/11/13 11:32:20;;;;;;;71.15;36.67;;;307.30;1766.40;;;;;;4883207;29;20060;-61
2021/11/13 11:34:47;;;;;;;81.25;38.45;;;307.40;1792.00;;;;;;4900092;29;20028;-61
2021/11/13 11:37:16;;;;;;;125.30;75.68;;;307.40;1792.00;;;;;;4897828;29;20028;-62
2021/11/13 11:39:46;;;;;;;89.00;45.50;;;307.70;1996.80;;;;;;4883185;29;20399;-60
2021/11/13 11:42:12;;;;;;;72.53;40.30;;;307.90;1868.80;;;;;;4900120;29;20020;-60
2021/11/13 11:44:40;;;;;;;69.38;37.53;;;307.90;1740.80;;;;;;4899554;29;20056;-63
2021/11/13 11:47:15;;;;;;;65.78;36.25;;;307.80;1740.80;;;;;;4898149;29;20040;-60
2021/11/13 11:49:45;;;;;;;63.75;35.20;;;307.90;1740.80;;;;;;4901410;29;20104;-61
2021/11/13 11:52:12;;;;;;;64.47;33.17;;;307.90;1715.20;;;;;;4918622;29;20127;-61
2021/11/13 11:54:38;;;;;;;63.55;34.67;;;307.80;1715.20;;;;;;4908460;29;20085;-60
2021/11/13 11:57:04;;;;;;;65.43;35.22;;;307.80;1715.20;;;;;;4899380;29;20036;-60
2021/11/13 11:59:30;;;;;;;60.05;34.05;;;307.80;1740.80;;;;;;4899256;29;20075;-61